Time;durP1;ratioP1;P1;durP2;ratioP2;P2;SDS_P1;SDS_P2;PMS_P1;PMS_P2;Temp;Humidity;BMP_temperature;BMP_pressure;BME280_temperature;BME280_humidity;BME280_pressure;Samples;Min_cycle;Max_cycle;Signal;HPM_P1;HPM_P2
2022/03/04 00:00:26;;;;;;;;;;;;;;;21.06;33.68;94805.34;2004062;29;1077;-68
2022/03/04 00:01:29;;;;;;;;;;;;;;;21.07;33.48;94806.16;2003237;29;1005;-68
2022/03/04 00:02:30;;;;;;;;;;;;;;;21.05;33.65;94805.56;2004103;29;1028;-68
2022/03/04 00:03:32;;;;;;;;;;;;;;;21.06;33.39;94804.50;2003237;29;1114;-68
2022/03/04 00:04:37;;;;;;;;;;;;;;;21.06;33.40;94804.50;2003357;29;1550;-67
2022/03/04 00:05:39;;;;;;;;;;;;;;;21.06;33.62;94793.84;2003161;29;1102;-68
2022/03/04 00:06:41;;;;;;;;;;;;;;;21.07;33.55;94806.16;2003239;29;1109;-68
2022/03/04 00:07:42;;;;;;;;;;;;;;;21.07;33.41;94811.50;2002976;29;1165;-67
2022/03/04 00:08:44;;;;;;;;;;;;;;;21.08;33.58;94813.13;1998052;29;1145;-67
2022/03/04 00:09:45;;;;;;;;;;;;;;;21.08;33.62;94805.13;2003706;29;1976;-68
2022/03/04 00:10:47;;;;;;;;;;;;;;;21.07;33.40;94809.66;2004062;29;1061;-68
2022/03/04 00:11:48;;;;;;;;;;;;;;;21.07;33.41;94812.31;2003606;29;1658;-68
2022/03/04 00:12:50;;;;;;;;;;;;;;;21.07;33.59;94816.84;2003174;29;1176;-68
2022/03/04 00:13:52;;;;;;;;;;;;;;;21.06;33.36;94813.38;1995876;29;983;-68
2022/03/04 00:14:53;;;;;;;;;;;;;;;21.05;33.65;94808.22;2003157;29;1181;-68
2022/03/04 00:15:55;;;;;;;;;;;;;;;21.06;33.60;94812.53;2003555;29;1024;-67
2022/03/04 00:16:57;;;;;;;;;;;;;;;21.07;33.57;94815.00;2003154;29;1005;-68
2022/03/04 00:17:58;;;;;;;;;;;;;;;21.07;33.36;94809.66;2003463;29;1065;-68
2022/03/04 00:19:07;;;;;;;;;;;;;;;21.06;33.52;94809.84;1998894;29;1100;-68
2022/03/04 00:20:09;;;;;;;;;;;;;;;21.05;33.45;94808.22;2002976;29;1306;-67
2022/03/04 00:21:11;;;;;;;;;;;;;;;21.04;33.35;94806.59;2003973;29;1054;-67
2022/03/04 00:22:16;;;;;;;;;;;;;;;21.05;33.41;94805.56;2003941;29;1174;-67
2022/03/04 00:23:18;;;;;;;;;;;;;;;21.05;33.57;94806.38;2003136;29;1102;-67
2022/03/04 00:24:21;;;;;;;;;;;;;;;21.06;33.51;94812.53;2003251;29;1118;-67
2022/03/04 00:25:22;;;;;;;;;;;;;;;21.07;33.37;94800.84;2003685;29;1737;-67
2022/03/04 00:26:24;;;;;;;;;;;;;;;21.06;33.54;94800.03;2003562;29;1278;-67
2022/03/04 00:27:26;;;;;;;;;;;;;;;21.06;33.35;94800.03;2003507;29;1044;-68
2022/03/04 00:28:28;;;;;;;;;;;;;;;21.07;33.33;94800.84;2004003;29;982;-68
2022/03/04 00:29:30;;;;;;;;;;;;;;;21.05;33.33;94795.69;2003238;29;1986;-68
2022/03/04 00:30:32;;;;;;;;;;;;;;;21.05;33.45;94803.72;1998584;29;1057;-68
2022/03/04 00:31:34;;;;;;;;;;;;;;;21.06;33.34;94793.84;2003315;29;1261;-68
2022/03/04 00:32:36;;;;;;;;;;;;;;;21.05;33.56;94802.88;2004180;29;1073;-68
2022/03/04 00:33:38;;;;;;;;;;;;;;;21.05;33.33;94803.72;2003931;29;1034;-68
2022/03/04 00:34:39;;;;;;;;;;;;;;;21.05;33.45;94802.88;2003083;29;1273;-66
2022/03/04 00:35:41;;;;;;;;;;;;;;;21.04;33.43;94801.25;1995653;29;1014;-67
2022/03/04 00:36:42;;;;;;;;;;;;;;;21.04;33.45;94790.59;1995878;29;1026;-67
2022/03/04 00:37:44;;;;;;;;;;;;;;;21.03;33.40;94788.94;2004173;29;1191;-68
2022/03/04 00:38:46;;;;;;;;;;;;;;;21.01;33.59;94791.84;2003495;29;1049;-67
2022/03/04 00:39:47;;;;;;;;;;;;;;;21.02;33.46;94788.13;2004063;29;1099;-67
2022/03/04 00:40:49;;;;;;;;;;;;;;;21.03;33.46;94794.28;2002578;29;1534;-68
2022/03/04 00:41:50;;;;;;;;;;;;;;;21.01;33.44;94796.34;1999197;29;1146;-66
2022/03/04 00:42:52;;;;;;;;;;;;;;;21.03;33.37;94788.94;2002657;29;972;-67
2022/03/04 00:43:53;;;;;;;;;;;;;;;21.05;33.45;94789.56;2003167;29;1077;-67
2022/03/04 00:44:55;;;;;;;;;;;;;;;21.04;33.43;94795.94;2010706;29;1149;-67
2022/03/04 00:45:57;;;;;;;;;;;;;;;21.04;33.40;94786.06;2003356;29;1055;-67
2022/03/04 00:46:58;;;;;;;;;;;;;;;21.02;33.46;94788.13;2003879;29;1049;-67
2022/03/04 00:48:00;;;;;;;;;;;;;;;21.03;33.42;94784.44;2003309;29;1172;-67
2022/03/04 00:49:02;;;;;;;;;;;;;;;21.03;33.33;94788.94;2002924;29;1767;-67
2022/03/04 00:50:04;;;;;;;;;;;;;;;21.03;33.56;94788.94;2003141;29;1912;-67
2022/03/04 00:51:06;;;;;;;;;;;;;;;21.03;33.38;94778.28;2003607;29;1149;-68
2022/03/04 00:52:08;;;;;;;;;;;;;;;21.02;33.68;94790.78;1999451;29;1058;-68
2022/03/04 00:53:09;;;;;;;;;;;;;;;21.03;33.42;94791.59;2002886;29;1177;-67
2022/03/04 00:54:11;;;;;;;;;;;;;;;21.03;33.48;94788.94;2003685;29;1025;-67
2022/03/04 00:55:13;;;;;;;;;;;;;;;21.03;33.47;94792.44;2003821;29;1489;-68
2022/03/04 00:56:14;;;;;;;;;;;;;;;21.03;33.42;94789.78;2003227;29;1098;-67
2022/03/04 00:57:16;;;;;;;;;;;;;;;21.04;33.45;94793.28;2002879;29;1029;-67
2022/03/04 00:58:17;;;;;;;;;;;;;;;21.03;33.50;94783.59;2002779;29;1201;-67
2022/03/04 00:59:19;;;;;;;;;;;;;;;21.03;33.40;94786.28;2003591;29;1043;-67
2022/03/04 01:00:21;;;;;;;;;;;;;;;21.03;33.32;94784.44;2002931;29;1948;-67
2022/03/04 01:01:22;;;;;;;;;;;;;;;21.02;33.44;94787.31;2002737;29;979;-67
2022/03/04 01:02:24;;;;;;;;;;;;;;;21.02;33.59;94780.13;2003464;29;1161;-68
2022/03/04 01:03:26;;;;;;;;;;;;;;;21.04;33.32;94791.41;1998112;29;1138;-68
2022/03/04 01:04:28;;;;;;;;;;;;;;;21.02;33.36;94790.78;2002981;29;1520;-68
2022/03/04 01:05:30;;;;;;;;;;;;;;;21.02;33.53;94787.31;2002702;29;1106;-68
2022/03/04 01:06:31;;;;;;;;;;;;;;;21.02;33.59;94782.78;2002928;29;1058;-67
2022/03/04 01:07:33;;;;;;;;;;;;;;;21.01;33.43;94785.69;2002701;29;1629;-67
2022/03/04 01:08:35;;;;;;;;;;;;;;;21.00;33.43;94779.50;2003330;29;1053;-68
2022/03/04 01:09:37;;;;;;;;;;;;;;;21.02;33.47;94782.78;2003249;29;1990;-68
2022/03/04 01:10:38;;;;;;;;;;;;;;;21.04;33.67;94779.94;2003735;29;1172;-67
2022/03/04 01:11:40;;;;;;;;;;;;;;;21.04;33.55;94783.41;2002322;29;1527;-67
2022/03/04 01:12:42;;;;;;;;;;;;;;;21.03;33.57;94778.28;2002856;29;1094;-68
2022/03/04 01:13:43;;;;;;;;;;;;;;;21.02;33.41;94777.47;2002949;29;1134;-68
2022/03/04 01:14:46;;;;;;;;;;;;;;;21.01;33.53;94775.84;1998008;29;1212;-67
2022/03/04 01:15:48;;;;;;;;;;;;;;;21.01;33.36;94775.84;2003163;29;1113;-68
2022/03/04 01:16:50;;;;;;;;;;;;;;;21.01;33.45;94775.03;2003546;29;1086;-68
2022/03/04 01:17:51;;;;;;;;;;;;;;;21.02;33.41;94771.31;2003530;29;1041;-67
2022/03/04 01:18:53;;;;;;;;;;;;;;;21.02;33.50;94771.31;2002943;29;1033;-68
2022/03/04 01:19:55;;;;;;;;;;;;;;;21.00;33.41;94768.84;2002799;29;1044;-68
2022/03/04 01:20:56;;;;;;;;;;;;;;;21.00;33.44;94766.19;2003379;29;1114;-67
2022/03/04 01:21:58;;;;;;;;;;;;;;;21.00;33.38;94762.69;2002782;29;1118;-68
2022/03/04 01:23:00;;;;;;;;;;;;;;;21.01;33.36;94769.69;2002478;29;1069;-68
2022/03/04 01:24:03;;;;;;;;;;;;;;;21.00;33.43;94763.53;2003573;29;1089;-68
2022/03/04 01:25:05;;;;;;;;;;;;;;;21.01;33.38;94767.84;1998481;29;986;-67
2022/03/04 01:26:06;;;;;;;;;;;;;;;21.01;33.39;94764.34;2002109;29;1275;-68
2022/03/04 01:27:08;;;;;;;;;;;;;;;21.01;33.44;94764.34;2003295;29;1192;-68
2022/03/04 01:28:09;;;;;;;;;;;;;;;21.01;33.55;94764.34;2003373;29;1020;-68
2022/03/04 01:29:11;;;;;;;;;;;;;;;21.01;33.58;94765.16;2002616;29;1725;-67
2022/03/04 01:30:14;;;;;;;;;;;;;;;21.01;33.54;94759.84;2001938;29;1915;-67
2022/03/04 01:31:15;;;;;;;;;;;;;;;21.02;33.45;94763.31;2002452;29;1695;-68
2022/03/04 01:32:17;;;;;;;;;;;;;;;21.02;33.40;94760.66;2003319;29;1267;-68
2022/03/04 01:33:19;;;;;;;;;;;;;;;21.01;33.53;94761.69;2002556;29;1575;-67
2022/03/04 01:34:21;;;;;;;;;;;;;;;21.00;33.53;94758.19;2002914;29;1136;-67
2022/03/04 01:35:22;;;;;;;;;;;;;;;21.01;33.41;94759.03;2003073;29;1149;-67
2022/03/04 01:36:24;;;;;;;;;;;;;;;20.99;33.34;94759.22;1998665;29;1104;-68
2022/03/04 01:37:26;;;;;;;;;;;;;;;21.04;33.32;94759.41;2002234;29;1169;-68
2022/03/04 01:38:27;;;;;;;;;;;;;;;21.02;33.55;94755.31;1995872;29;1159;-68
2022/03/04 01:39:29;;;;;;;;;;;;;;;21.02;33.52;94760.66;1994869;29;1106;-68
2022/03/04 01:40:31;;;;;;;;;;;;;;;21.01;33.38;94759.03;1994626;29;1161;-68
2022/03/04 01:41:32;;;;;;;;;;;;;;;21.01;33.43;94764.34;1995007;29;947;-68
2022/03/04 01:42:34;;;;;;;;;;;;;;;20.99;33.58;94763.75;1995589;29;1098;-68
2022/03/04 01:43:36;;;;;;;;;;;;;;;21.00;33.45;94760.03;1995807;29;982;-68
2022/03/04 01:44:38;;;;;;;;;;;;;;;20.98;33.40;94760.28;1995307;29;1038;-68
2022/03/04 01:45:39;;;;;;;;;;;;;;;20.98;33.42;94757.59;1994551;29;1837;-68
2022/03/04 01:46:41;;;;;;;;;;;;;;;20.98;33.40;94759.44;1995809;29;992;-68
2022/03/04 01:47:43;;;;;;;;;;;;;;;20.98;33.64;94762.13;1990961;29;1140;-68
2022/03/04 01:48:45;;;;;;;;;;;;;;;20.98;33.45;94759.44;1995377;29;1071;-67
2022/03/04 01:49:47;;;;;;;;;;;;;;;20.99;33.59;94758.41;1995099;29;1165;-67
2022/03/04 01:50:49;;;;;;;;;;;;;;;20.98;33.69;94754.94;1995077;29;1907;-67
2022/03/04 01:51:51;;;;;;;;;;;;;;;20.97;33.52;94753.28;1995474;29;1499;-68
2022/03/04 01:52:53;;;;;;;;;;;;;;;20.96;33.38;94750.84;1995225;29;1118;-69
2022/03/04 01:53:55;;;;;;;;;;;;;;;20.98;33.70;94756.78;1995619;29;1134;-68
2022/03/04 01:54:56;;;;;;;;;;;;;;;20.98;33.57;94754.94;1995382;29;1034;-69
2022/03/04 01:55:58;;;;;;;;;;;;;;;20.99;33.38;94756.56;1994905;29;959;-68
2022/03/04 01:57:00;;;;;;;;;;;;;;;20.98;33.38;94759.44;1995727;29;1049;-68
2022/03/04 01:58:01;;;;;;;;;;;;;;;20.97;33.58;94755.94;1993309;29;1173;-66
2022/03/04 01:59:03;;;;;;;;;;;;;;;20.98;33.44;94754.94;1993700;29;1095;-67
2022/03/04 02:00:07;;;;;;;;;;;;;;;20.98;33.41;94754.13;1995156;29;1106;-67
2022/03/04 02:01:08;;;;;;;;;;;;;;;20.98;33.60;94748.78;1994978;29;1116;-68
2022/03/04 02:02:10;;;;;;;;;;;;;;;20.98;33.41;94743.47;1994515;29;1149;-68
2022/03/04 02:03:12;;;;;;;;;;;;;;;20.99;33.39;94745.88;1995075;29;965;-67
2022/03/04 02:04:14;;;;;;;;;;;;;;;20.99;33.41;94740.56;1995477;29;1081;-67
2022/03/04 02:05:17;;;;;;;;;;;;;;;20.99;33.42;94743.22;1994952;29;1668;-68
2022/03/04 02:06:19;;;;;;;;;;;;;;;20.98;33.35;94748.78;1994935;29;1074;-68
2022/03/04 02:07:20;;;;;;;;;;;;;;;20.99;33.41;94747.75;1994690;29;986;-68
2022/03/04 02:08:22;;;;;;;;;;;;;;;20.99;33.36;94745.09;1995071;29;1114;-68
2022/03/04 02:09:24;;;;;;;;;;;;;;;20.99;33.40;94743.22;1989840;29;1119;-68
2022/03/04 02:10:25;;;;;;;;;;;;;;;20.98;33.36;94738.94;1994313;29;1990;-67
2022/03/04 02:11:27;;;;;;;;;;;;;;;20.99;33.52;94734.41;1994958;29;1173;-68
2022/03/04 02:12:28;;;;;;;;;;;;;;;20.97;33.54;94734.63;1994901;29;1018;-68
2022/03/04 02:13:31;;;;;;;;;;;;;;;20.97;33.65;94736.47;1995394;29;1054;-68
2022/03/04 02:14:32;;;;;;;;;;;;;;;20.97;33.41;94741.81;1994458;29;1049;-68
2022/03/04 02:15:34;;;;;;;;;;;;;;;20.98;33.59;94743.47;1987425;29;1065;-68
2022/03/04 02:16:41;;;;;;;;;;;;;;;20.98;33.37;94738.94;1995028;29;1056;-68
2022/03/04 02:17:42;;;;;;;;;;;;;;;20.98;33.55;94735.44;1995484;29;997;-68
2022/03/04 02:18:44;;;;;;;;;;;;;;;20.98;33.35;94733.59;1995550;29;1134;-68
2022/03/04 02:19:50;;;;;;;;;;;;;;;20.97;33.59;94737.28;1995108;29;1166;-68
2022/03/04 02:20:52;;;;;;;;;;;;;;;20.97;33.45;94737.28;1990846;29;1141;-68
2022/03/04 02:21:58;;;;;;;;;;;;;;;20.97;33.48;94739.13;1995133;29;1094;-68
2022/03/04 02:22:59;;;;;;;;;;;;;;;20.96;33.57;94735.66;1994559;29;1118;-68
2022/03/04 02:24:01;;;;;;;;;;;;;;;20.97;33.49;94739.94;1994663;29;1070;-68
2022/03/04 02:25:05;;;;;;;;;;;;;;;20.97;33.37;94736.47;1994752;29;926;-68
2022/03/04 02:26:06;;;;;;;;;;;;;;;20.96;33.59;94730.31;1995338;29;1289;-68
2022/03/04 02:27:08;;;;;;;;;;;;;;;20.96;33.42;94724.19;1995510;29;1026;-68
2022/03/04 02:28:10;;;;;;;;;;;;;;;20.96;33.52;94740.19;1995441;29;975;-68
2022/03/04 02:29:12;;;;;;;;;;;;;;;20.97;33.55;94747.94;1994626;29;1045;-68
2022/03/04 02:30:14;;;;;;;;;;;;;;;20.98;33.56;94738.13;1994664;29;1488;-68
2022/03/04 02:31:15;;;;;;;;;;;;;;;20.98;33.40;94744.25;1990617;29;1974;-68
2022/03/04 02:32:17;;;;;;;;;;;;;;;20.99;33.29;94742.41;1995440;29;1065;-68
2022/03/04 02:33:19;;;;;;;;;;;;;;;20.99;33.33;94737.91;1995176;29;1101;-68
2022/03/04 02:34:21;;;;;;;;;;;;;;;20.98;33.34;94725.59;1995689;29;1001;-69
2022/03/04 02:35:22;;;;;;;;;;;;;;;20.98;33.38;94736.28;1995370;29;1029;-68
2022/03/04 02:36:24;;;;;;;;;;;;;;;20.97;33.38;94731.94;1995742;29;990;-69
2022/03/04 02:37:26;;;;;;;;;;;;;;;20.97;33.66;94742.63;1995174;29;1148;-68
2022/03/04 02:38:27;;;;;;;;;;;;;;;20.96;33.52;94746.31;2001208;29;1196;-69
2022/03/04 02:39:29;;;;;;;;;;;;;;;20.96;33.44;94746.31;2002582;29;986;-68
2022/03/04 02:40:31;;;;;;;;;;;;;;;20.98;33.40;94749.59;2002784;29;1326;-66
2022/03/04 02:41:36;;;;;;;;;;;;;;;20.99;33.37;94737.06;2002134;29;1037;-68
2022/03/04 02:42:37;;;;;;;;;;;;;;;20.99;33.29;94739.75;1997755;29;1112;-68
2022/03/04 02:43:39;;;;;;;;;;;;;;;20.98;33.48;94736.28;2002751;29;1050;-69
2022/03/04 02:44:40;;;;;;;;;;;;;;;20.96;33.69;94743.66;2002726;29;1016;-68
2022/03/04 02:45:42;;;;;;;;;;;;;;;20.97;33.39;94731.94;2002554;29;1649;-69
2022/03/04 02:46:44;;;;;;;;;;;;;;;20.96;33.60;94740.19;2002674;29;1086;-69
2022/03/04 02:47:45;;;;;;;;;;;;;;;20.96;33.53;94737.50;2002775;29;1688;-68
2022/03/04 02:48:47;;;;;;;;;;;;;;;20.95;33.48;94733.22;2002644;29;1519;-69
2022/03/04 02:49:49;;;;;;;;;;;;;;;20.95;33.44;94741.22;2001780;29;1165;-69
2022/03/04 02:50:50;;;;;;;;;;;;;;;20.95;33.46;94735.88;2001980;29;1980;-69
2022/03/04 02:51:52;;;;;;;;;;;;;;;20.96;33.46;94734.84;2002219;29;1702;-69
2022/03/04 02:52:54;;;;;;;;;;;;;;;20.95;33.40;94730.56;2002784;29;1201;-68
2022/03/04 02:53:55;;;;;;;;;;;;;;;20.95;33.46;94733.22;1997832;29;1110;-69
2022/03/04 02:54:57;;;;;;;;;;;;;;;20.96;33.39;94740.19;2002539;29;1157;-67
2022/03/04 02:55:59;;;;;;;;;;;;;;;20.95;33.37;94733.22;2002449;29;1118;-67
2022/03/04 02:57:00;;;;;;;;;;;;;;;20.94;33.49;94732.38;2001995;29;1153;-67
2022/03/04 02:58:02;;;;;;;;;;;;;;;20.94;33.50;94737.72;2002086;29;1114;-67
2022/03/04 02:59:04;;;;;;;;;;;;;;;20.94;33.60;94737.72;2002194;29;1524;-67
2022/03/04 03:00:06;;;;;;;;;;;;;;;20.95;33.38;94738.56;2002266;29;1553;-66
2022/03/04 03:01:07;;;;;;;;;;;;;;;20.97;33.36;94741.81;2002732;29;1075;-67
2022/03/04 03:02:09;;;;;;;;;;;;;;;20.97;33.46;94736.47;2001759;29;1153;-67
2022/03/04 03:03:11;;;;;;;;;;;;;;;20.95;33.37;94742.03;2002028;29;1811;-67
2022/03/04 03:04:13;;;;;;;;;;;;;;;20.93;33.42;94741.41;1996911;29;1501;-68
2022/03/04 03:05:15;;;;;;;;;;;;;;;20.95;33.54;94738.56;2001785;29;1122;-68
2022/03/04 03:06:16;;;;;;;;;;;;;;;20.93;33.55;94728.09;2002585;29;1046;-67
2022/03/04 03:07:18;;;;;;;;;;;;;;;20.95;33.49;94733.22;2002633;29;1058;-67
2022/03/04 03:08:19;;;;;;;;;;;;;;;20.95;33.63;94738.56;2002902;29;1069;-67
2022/03/04 03:09:21;;;;;;;;;;;;;;;20.94;33.59;94737.72;2001676;29;1286;-67
2022/03/04 03:10:23;;;;;;;;;;;;;;;20.94;33.45;94732.38;2001585;29;1492;-67
2022/03/04 03:11:24;;;;;;;;;;;;;;;20.94;33.56;94736.91;2002194;29;1899;-68
2022/03/04 03:12:26;;;;;;;;;;;;;;;20.95;33.42;94734.03;2002209;29;1049;-68
2022/03/04 03:13:27;;;;;;;;;;;;;;;20.94;33.56;94737.72;2001912;29;1165;-68
2022/03/04 03:14:29;;;;;;;;;;;;;;;20.91;33.60;94732.81;2001599;29;1110;-68
2022/03/04 03:15:31;;;;;;;;;;;;;;;20.94;33.57;94736.91;1998063;29;1175;-68
2022/03/04 03:16:32;;;;;;;;;;;;;;;20.94;33.59;94731.56;2003099;29;1169;-68
2022/03/04 03:17:34;;;;;;;;;;;;;;;20.95;33.37;94735.88;2002523;29;1406;-68
2022/03/04 03:18:36;;;;;;;;;;;;;;;20.93;33.61;94733.41;2002774;29;1133;-66
2022/03/04 03:19:38;;;;;;;;;;;;;;;20.92;33.58;94737.13;2002434;29;1010;-67
2022/03/04 03:20:39;;;;;;;;;;;;;;;20.92;33.40;94736.28;1995020;29;1164;-66
2022/03/04 03:21:42;;;;;;;;;;;;;;;20.93;33.61;94740.59;2001857;29;1587;-67
2022/03/04 03:22:47;;;;;;;;;;;;;;;20.93;33.39;94735.28;2003186;29;1016;-67
2022/03/04 03:23:49;;;;;;;;;;;;;;;20.93;33.34;94735.28;2003471;29;1051;-67
2022/03/04 03:24:50;;;;;;;;;;;;;;;20.92;33.49;94726.47;2002948;29;1133;-68
2022/03/04 03:25:52;;;;;;;;;;;;;;;20.92;33.50;94731.78;2002939;29;1200;-68
2022/03/04 03:26:54;;;;;;;;;;;;;;;20.91;33.62;94735.47;1998376;29;1183;-67
2022/03/04 03:27:55;;;;;;;;;;;;;;;20.91;33.39;94732.00;2002820;29;1086;-68
2022/03/04 03:28:57;;;;;;;;;;;;;;;20.93;33.31;94737.94;2002777;29;1118;-67
2022/03/04 03:29:59;;;;;;;;;;;;;;;20.94;33.42;94739.56;2002718;29;1712;-67
2022/03/04 03:31:01;;;;;;;;;;;;;;;20.93;33.44;94736.09;2002733;29;1986;-67
2022/03/04 03:32:03;;;;;;;;;;;;;;;20.93;33.54;94736.09;2003084;29;1178;-67
2022/03/04 03:33:04;;;;;;;;;;;;;;;20.94;33.34;94743.03;2010003;29;1158;-67
2022/03/04 03:34:06;;;;;;;;;;;;;;;20.95;33.36;94744.69;2010071;29;986;-69
2022/03/04 03:35:08;;;;;;;;;;;;;;;20.92;33.35;94734.47;2003320;29;1084;-69
2022/03/04 03:36:10;;;;;;;;;;;;;;;20.93;33.55;94746.75;2002235;29;1040;-69
2022/03/04 03:37:12;;;;;;;;;;;;;;;20.94;33.52;94744.91;1999154;29;1061;-69
2022/03/04 03:38:14;;;;;;;;;;;;;;;20.93;33.23;94741.41;1997168;29;1234;-69
2022/03/04 03:39:16;;;;;;;;;;;;;;;20.93;33.50;94744.09;1995106;29;1118;-68
2022/03/04 03:40:17;;;;;;;;;;;;;;;20.95;33.53;94743.88;1995308;29;1026;-69
2022/03/04 03:41:19;;;;;;;;;;;;;;;20.92;33.53;94742.47;1995838;29;1069;-69
2022/03/04 03:42:22;;;;;;;;;;;;;;;20.92;33.35;94738.94;1996229;29;990;-69
2022/03/04 03:43:24;;;;;;;;;;;;;;;20.92;33.42;94739.78;1995245;29;1181;-68
2022/03/04 03:44:25;;;;;;;;;;;;;;;20.92;33.37;94744.28;1996206;29;1057;-69
2022/03/04 03:45:27;;;;;;;;;;;;;;;20.92;33.42;94742.47;1996281;29;1026;-69
2022/03/04 03:46:29;;;;;;;;;;;;;;;20.92;33.38;94741.63;1995672;29;1113;-69
2022/03/04 03:47:30;;;;;;;;;;;;;;;20.91;33.44;94746.13;1995854;29;1157;-69
2022/03/04 03:48:32;;;;;;;;;;;;;;;20.91;33.70;94745.31;1991506;29;1099;-69
2022/03/04 03:49:35;;;;;;;;;;;;;;;20.91;33.40;94740.00;1994951;29;1025;-69
2022/03/04 03:50:38;;;;;;;;;;;;;;;20.90;33.45;94741.84;1995806;29;1061;-69
2022/03/04 03:51:41;;;;;;;;;;;;;;;20.89;33.34;94732.22;1995337;29;1990;-69
2022/03/04 03:52:42;;;;;;;;;;;;;;;20.89;33.43;94738.38;1996250;29;982;-69
2022/03/04 03:53:44;;;;;;;;;;;;;;;20.89;33.60;94740.22;1994640;29;1122;-69
2022/03/04 03:54:45;;;;;;;;;;;;;;;20.89;33.52;94742.91;1994871;29;1114;-69
2022/03/04 03:55:47;;;;;;;;;;;;;;;20.89;33.50;94745.56;1995966;29;1177;-69
2022/03/04 03:56:49;;;;;;;;;;;;;;;20.88;33.58;94744.72;1995530;29;1098;-70
2022/03/04 03:57:50;;;;;;;;;;;;;;;20.91;33.40;94740.00;1995453;29;1073;-69
2022/03/04 03:58:57;;;;;;;;;;;;;;;20.90;33.40;94741.84;1994216;29;1165;-68
2022/03/04 03:59:59;;;;;;;;;;;;;;;20.89;33.41;94743.69;1992295;29;999;-69
2022/03/04 04:01:01;;;;;;;;;;;;;;;20.90;33.52;94744.50;1995134;29;986;-69
2022/03/04 04:02:03;;;;;;;;;;;;;;;20.91;33.54;94740.81;1994808;29;1161;-69
2022/03/04 04:03:05;;;;;;;;;;;;;;;20.91;33.41;94746.13;1995557;29;1108;-69
2022/03/04 04:04:14;;;;;;;;;;;;;;;20.90;33.31;94736.53;1994633;29;1211;-69
2022/03/04 04:05:15;;;;;;;;;;;;;;;20.89;33.55;94746.38;1995433;29;1084;-69
2022/03/04 04:06:17;;;;;;;;;;;;;;;20.92;33.53;94741.63;1995304;29;995;-67
2022/03/04 04:07:19;;;;;;;;;;;;;;;20.91;33.49;94745.31;1994945;29;1194;-69
2022/03/04 04:08:20;;;;;;;;;;;;;;;20.91;33.32;94742.66;1996026;29;1173;-69
2022/03/04 04:09:22;;;;;;;;;;;;;;;20.91;33.26;94745.31;1994880;29;1050;-69
2022/03/04 04:10:24;;;;;;;;;;;;;;;20.93;33.36;94745.94;1990894;29;1013;-68
2022/03/04 04:11:27;;;;;;;;;;;;;;;20.91;33.30;94740.81;1996021;29;1911;-70
2022/03/04 04:12:28;;;;;;;;;;;;;;;20.92;33.38;94741.63;1995343;29;1656;-68
2022/03/04 04:13:30;;;;;;;;;;;;;;;20.90;33.27;94744.50;1995490;29;1213;-68
2022/03/04 04:14:32;;;;;;;;;;;;;;;20.91;33.36;94748.00;1995632;29;1520;-69
2022/03/04 04:15:34;;;;;;;;;;;;;;;20.92;33.35;94749.63;1996237;29;1516;-69
2022/03/04 04:16:36;;;;;;;;;;;;;;;20.90;33.53;94747.19;1997319;29;1089;-69
2022/03/04 04:17:38;;;;;;;;;;;;;;;20.89;33.31;94748.22;1996862;29;1129;-70
2022/03/04 04:18:40;;;;;;;;;;;;;;;20.88;33.35;94742.06;1996979;29;1550;-69
2022/03/04 04:19:42;;;;;;;;;;;;;;;20.87;33.42;94745.75;1997159;29;1091;-69
2022/03/04 04:20:43;;;;;;;;;;;;;;;20.86;33.43;94746.81;1996284;29;1095;-69
2022/03/04 04:21:45;;;;;;;;;;;;;;;20.86;33.39;94744.13;1992841;29;1004;-70
2022/03/04 04:22:47;;;;;;;;;;;;;;;20.86;33.52;94741.47;1996277;29;1025;-68
2022/03/04 04:23:48;;;;;;;;;;;;;;;20.86;33.42;94746.81;1996663;29;1110;-69
2022/03/04 04:24:50;;;;;;;;;;;;;;;20.86;33.58;94744.13;1996261;29;1117;-68
2022/03/04 04:25:52;;;;;;;;;;;;;;;20.86;33.36;94749.47;1996255;29;1267;-68
2022/03/04 04:26:53;;;;;;;;;;;;;;;20.86;33.30;94736.13;1996717;29;1073;-69
2022/03/04 04:27:55;;;;;;;;;;;;;;;20.86;33.60;94746.81;1995688;29;998;-68
2022/03/04 04:28:57;;;;;;;;;;;;;;;20.86;33.41;94746.81;1996331;29;1205;-69
2022/03/04 04:29:59;;;;;;;;;;;;;;;20.87;33.57;94747.63;1996497;29;1227;-69
2022/03/04 04:31:01;;;;;;;;;;;;;;;20.88;33.39;94749.22;1996357;29;1185;-69
2022/03/04 04:32:03;;;;;;;;;;;;;;;20.86;33.38;94744.13;1995436;29;1911;-68
2022/03/04 04:33:05;;;;;;;;;;;;;;;20.87;33.29;94748.44;1994543;29;1172;-69
2022/03/04 04:34:07;;;;;;;;;;;;;;;20.88;33.53;94755.38;1996402;29;1114;-69
2022/03/04 04:35:09;;;;;;;;;;;;;;;20.86;33.35;94752.13;1995918;29;1061;-69
2022/03/04 04:36:11;;;;;;;;;;;;;;;20.87;33.56;94747.63;1996756;29;1379;-69
2022/03/04 04:37:12;;;;;;;;;;;;;;;20.86;33.32;94752.13;1997309;29;1149;-69
2022/03/04 04:38:14;;;;;;;;;;;;;;;20.88;33.42;94758.03;2000799;29;1184;-68
2022/03/04 04:39:16;;;;;;;;;;;;;;;20.87;33.48;94752.94;2003472;29;1643;-68
2022/03/04 04:40:18;;;;;;;;;;;;;;;20.88;33.33;94754.56;2004667;29;1527;-69
2022/03/04 04:41:20;;;;;;;;;;;;;;;20.87;33.42;94758.28;2004533;29;975;-70
2022/03/04 04:42:22;;;;;;;;;;;;;;;20.87;33.32;94759.09;2004822;29;996;-68
2022/03/04 04:43:23;;;;;;;;;;;;;;;20.87;33.58;94761.75;1999540;29;1185;-68
2022/03/04 04:44:25;;;;;;;;;;;;;;;20.88;33.52;94765.22;2002623;29;1110;-68
2022/03/04 04:45:27;;;;;;;;;;;;;;;20.88;33.35;94760.72;2003238;29;1156;-68
2022/03/04 04:46:28;;;;;;;;;;;;;;;20.85;33.38;94758.47;2003572;29;1072;-68
2022/03/04 04:47:30;;;;;;;;;;;;;;;20.86;33.42;94765.47;2003847;29;1046;-67
2022/03/04 04:48:32;;;;;;;;;;;;;;;20.86;33.38;94776.13;2002997;29;1080;-68
2022/03/04 04:49:36;;;;;;;;;;;;;;;20.86;33.51;94764.63;2002894;29;1177;-68
2022/03/04 04:50:38;;;;;;;;;;;;;;;20.87;33.36;94766.28;2003009;29;1496;-69
2022/03/04 04:51:40;;;;;;;;;;;;;;;20.87;33.39;94769.75;2002608;29;1098;-68
2022/03/04 04:52:41;;;;;;;;;;;;;;;20.86;33.42;94768.13;2003575;29;1907;-69
2022/03/04 04:53:44;;;;;;;;;;;;;;;20.87;33.35;94768.94;2003406;29;1091;-68
2022/03/04 04:54:46;;;;;;;;;;;;;;;20.86;33.48;94784.13;1999445;29;1177;-68
2022/03/04 04:55:48;;;;;;;;;;;;;;;20.86;33.42;94784.13;2003200;29;1133;-69
2022/03/04 04:56:50;;;;;;;;;;;;;;;20.89;33.27;94773.03;2003000;29;1508;-68
2022/03/04 04:57:51;;;;;;;;;;;;;;;20.88;33.33;94778.56;2002781;29;1109;-68
2022/03/04 04:58:53;;;;;;;;;;;;;;;20.87;33.54;94779.59;2002795;29;1118;-68
2022/03/04 04:59:54;;;;;;;;;;;;;;;20.86;33.36;94785.94;2002544;29;1207;-68
2022/03/04 05:00:56;;;;;;;;;;;;;;;20.87;33.32;94785.75;2003329;29;1002;-68
2022/03/04 05:01:58;;;;;;;;;;;;;;;20.87;33.37;94785.75;2003266;29;1094;-69
2022/03/04 05:03:00;;;;;;;;;;;;;;;20.86;33.33;94792.13;2003685;29;1172;-68
2022/03/04 05:04:02;;;;;;;;;;;;;;;20.88;33.33;94781.22;2003406;29;1172;-69
2022/03/04 05:05:03;;;;;;;;;;;;;;;20.87;33.42;94776.94;2002699;29;1565;-68
2022/03/04 05:06:05;;;;;;;;;;;;;;;20.87;33.30;94787.59;1999593;29;1247;-69
2022/03/04 05:07:07;;;;;;;;;;;;;;;20.86;33.25;94780.63;2002919;29;1079;-68
2022/03/04 05:08:08;;;;;;;;;;;;;;;20.85;33.55;94776.31;2003426;29;1066;-69
2022/03/04 05:09:10;;;;;;;;;;;;;;;20.85;33.34;94782.47;2002862;29;1058;-70
2022/03/04 05:10:12;;;;;;;;;;;;;;;20.85;33.35;94779.81;2002772;29;1028;-69
2022/03/04 05:11:14;;;;;;;;;;;;;;;20.83;33.32;94784.56;2003890;29;1098;-69
2022/03/04 05:12:15;;;;;;;;;;;;;;;20.84;33.35;94774.69;2002148;29;1907;-69
2022/03/04 05:13:17;;;;;;;;;;;;;;;20.85;33.39;94781.66;2002886;29;1054;-68
2022/03/04 05:14:18;;;;;;;;;;;;;;;20.85;33.42;94781.66;2010708;29;979;-69
2022/03/04 05:15:20;;;;;;;;;;;;;;;20.86;33.34;94784.13;2003488;29;1077;-69
2022/03/04 05:16:22;;;;;;;;;;;;;;;20.87;33.47;94780.41;1999582;29;1151;-69
2022/03/04 05:17:24;;;;;;;;;;;;;;;20.86;33.38;94784.13;2003023;29;1287;-69
2022/03/04 05:18:25;;;;;;;;;;;;;;;20.85;33.36;94787.81;2002774;29;1194;-69
2022/03/04 05:19:27;;;;;;;;;;;;;;;20.87;33.29;94779.59;2002427;29;1168;-69
2022/03/04 05:20:29;;;;;;;;;;;;;;;20.86;33.38;94784.13;2003213;29;1846;-69
2022/03/04 05:21:30;;;;;;;;;;;;;;;20.85;33.36;94787.81;2003497;29;1125;-69
2022/03/04 05:22:32;;;;;;;;;;;;;;;20.86;33.48;94786.78;2002598;29;1056;-69
2022/03/04 05:24:54;;;;;;;;;;;;;;;20.83;33.32;94784.56;2003481;29;1068;-69
2022/03/04 05:25:55;;;;;;;;;;;;;;;20.84;33.39;94790.69;2003099;29;1308;-69
2022/03/04 05:26:57;;;;;;;;;;;;;;;20.83;33.30;94781.88;2002630;29;1114;-69
2022/03/04 05:27:59;;;;;;;;;;;;;;;20.83;33.35;94781.03;1998245;29;1098;-69